sensor_id;sensor_type;location;lat;lon;timestamp;P1;durP1;ratioP1;P2;durP2;ratioP2
48987;SDS011;34799;51.440;-2.534;2022-09-16T00:00:50;1.63;;;0.20;;
48987;SDS011;34799;51.440;-2.534;2022-09-16T00:03:17;2.28;;;0.20;;
48987;SDS011;34799;51.440;-2.534;2022-09-16T00:05:49;6.00;;;0.28;;
48987;SDS011;34799;51.440;-2.534;2022-09-16T00:08:17;3.58;;;0.35;;
48987;SDS011;34799;51.440;-2.534;2022-09-16T00:10:47;0.80;;;0.20;;
48987;SDS011;34799;51.440;-2.534;2022-09-16T00:13:14;3.72;;;0.40;;
48987;SDS011;34799;51.440;-2.534;2022-09-16T00:15:45;3.72;;;0.40;;
48987;SDS011;34799;51.440;-2.534;2022-09-16T00:18:14;2.55;;;0.50;;
48987;SDS011;34799;51.440;-2.534;2022-09-16T00:20:45;2.28;;;0.40;;
48987;SDS011;34799;51.440;-2.534;2022-09-16T00:23:15;1.30;;;0.20;;
48987;SDS011;34799;51.440;-2.534;2022-09-16T00:25:42;1.10;;;0.30;;
48987;SDS011;34799;51.440;-2.534;2022-09-16T00:28:09;1.25;;;0.20;;
48987;SDS011;34799;51.440;-2.534;2022-09-16T00:30:36;1.85;;;0.35;;
48987;SDS011;34799;51.440;-2.534;2022-09-16T00:33:03;2.72;;;0.80;;
48987;SDS011;34799;51.440;-2.534;2022-09-16T00:35:31;2.53;;;0.30;;
48987;SDS011;34799;51.440;-2.534;2022-09-16T00:37:58;1.48;;;0.15;;
48987;SDS011;34799;51.440;-2.534;2022-09-16T00:40:25;4.00;;;0.40;;
48987;SDS011;34799;51.440;-2.534;2022-09-16T00:42:52;3.47;;;0.38;;
48987;SDS011;34799;51.440;-2.534;2022-09-16T00:45:21;2.70;;;0.30;;
48987;SDS011;34799;51.440;-2.534;2022-09-16T00:47:55;2.90;;;0.30;;
48987;SDS011;34799;51.440;-2.534;2022-09-16T00:50:30;1.30;;;0.20;;
48987;SDS011;34799;51.440;-2.534;2022-09-16T00:53:04;2.80;;;0.35;;
48987;SDS011;34799;51.440;-2.534;2022-09-16T00:55:35;8.35;;;1.30;;
48987;SDS011;34799;51.440;-2.534;2022-09-16T00:58:05;1.98;;;0.30;;
48987;SDS011;34799;51.440;-2.534;2022-09-16T01:00:37;3.28;;;0.80;;
48987;SDS011;34799;51.440;-2.534;2022-09-16T01:03:05;5.03;;;1.00;;
48987;SDS011;34799;51.440;-2.534;2022-09-16T01:05:32;5.55;;;1.02;;
48987;SDS011;34799;51.440;-2.534;2022-09-16T01:08:01;10.80;;;2.33;;
48987;SDS011;34799;51.440;-2.534;2022-09-16T01:10:28;11.18;;;2.97;;
48987;SDS011;34799;51.440;-2.534;2022-09-16T01:13:06;15.95;;;4.50;;
48987;SDS011;34799;51.440;-2.534;2022-09-16T01:15:39;18.27;;;5.82;;
48987;SDS011;34799;51.440;-2.534;2022-09-16T01:18:51;19.40;;;5.13;;
48987;SDS011;34799;51.440;-2.534;2022-09-16T01:21:47;18.45;;;4.75;;
48987;SDS011;34799;51.440;-2.534;2022-09-16T01:27:43;16.02;;;4.10;;
48987;SDS011;34799;51.440;-2.534;2022-09-16T01:53:22;7.18;;;1.92;;
48987;SDS011;34799;51.440;-2.534;2022-09-16T01:56:16;8.48;;;1.90;;
48987;SDS011;34799;51.440;-2.534;2022-09-16T01:59:03;6.68;;;1.90;;
48987;SDS011;34799;51.440;-2.534;2022-09-16T02:01:38;10.00;;;1.90;;
48987;SDS011;34799;51.440;-2.534;2022-09-16T02:04:13;6.03;;;1.55;;
48987;SDS011;34799;51.440;-2.534;2022-09-16T02:06:47;6.63;;;1.52;;
48987;SDS011;34799;51.440;-2.534;2022-09-16T02:09:18;6.85;;;1.17;;
48987;SDS011;34799;51.440;-2.534;2022-09-16T02:12:17;3.25;;;1.00;;
48987;SDS011;34799;51.440;-2.534;2022-09-16T02:14:49;12.63;;;1.88;;
48987;SDS011;34799;51.440;-2.534;2022-09-16T02:17:20;5.15;;;1.25;;
48987;SDS011;34799;51.440;-2.534;2022-09-16T02:20:13;5.32;;;1.40;;
48987;SDS011;34799;51.440;-2.534;2022-09-16T02:22:43;4.20;;;1.08;;
48987;SDS011;34799;51.440;-2.534;2022-09-16T02:25:18;6.25;;;1.48;;
48987;SDS011;34799;51.440;-2.534;2022-09-16T02:27:46;5.18;;;1.17;;
48987;SDS011;34799;51.440;-2.534;2022-09-16T02:30:19;3.97;;;1.10;;
48987;SDS011;34799;51.440;-2.534;2022-09-16T02:32:56;3.72;;;0.93;;
48987;SDS011;34799;51.440;-2.534;2022-09-16T02:35:27;4.30;;;1.08;;
48987;SDS011;34799;51.440;-2.534;2022-09-16T02:38:07;8.25;;;1.02;;
48987;SDS011;34799;51.440;-2.534;2022-09-16T02:40:47;4.30;;;1.30;;
48987;SDS011;34799;51.440;-2.534;2022-09-16T02:43:18;5.53;;;0.85;;
48987;SDS011;34799;51.440;-2.534;2022-09-16T02:56:40;3.88;;;0.52;;
48987;SDS011;34799;51.440;-2.534;2022-09-16T02:59:09;4.03;;;0.60;;
48987;SDS011;34799;51.440;-2.534;2022-09-16T03:01:39;4.68;;;1.15;;
48987;SDS011;34799;51.440;-2.534;2022-09-16T03:04:10;1.45;;;0.50;;
48987;SDS011;34799;51.440;-2.534;2022-09-16T03:06:39;3.97;;;0.60;;
48987;SDS011;34799;51.440;-2.534;2022-09-16T03:09:07;3.35;;;0.50;;
48987;SDS011;34799;51.440;-2.534;2022-09-16T03:11:44;1.85;;;0.40;;
48987;SDS011;34799;51.440;-2.534;2022-09-16T03:28:17;2.67;;;0.60;;
48987;SDS011;34799;51.440;-2.534;2022-09-16T03:33:34;4.75;;;0.38;;
48987;SDS011;34799;51.440;-2.534;2022-09-16T03:36:22;2.38;;;0.60;;
48987;SDS011;34799;51.440;-2.534;2022-09-16T03:38:55;7.65;;;1.10;;
48987;SDS011;34799;51.440;-2.534;2022-09-16T03:41:23;4.30;;;0.50;;
48987;SDS011;34799;51.440;-2.534;2022-09-16T03:43:55;3.60;;;0.73;;
48987;SDS011;34799;51.440;-2.534;2022-09-16T03:46:27;3.85;;;0.60;;
48987;SDS011;34799;51.440;-2.534;2022-09-16T03:48:55;4.10;;;0.85;;
48987;SDS011;34799;51.440;-2.534;2022-09-16T03:51:23;4.10;;;0.47;;
48987;SDS011;34799;51.440;-2.534;2022-09-16T03:53:50;2.70;;;0.45;;
48987;SDS011;34799;51.440;-2.534;2022-09-16T03:56:18;3.28;;;0.30;;
48987;SDS011;34799;51.440;-2.534;2022-09-16T03:58:47;1.60;;;0.68;;
48987;SDS011;34799;51.440;-2.534;2022-09-16T04:01:14;2.20;;;0.32;;
48987;SDS011;34799;51.440;-2.534;2022-09-16T04:03:41;1.92;;;0.40;;
48987;SDS011;34799;51.440;-2.534;2022-09-16T04:06:08;4.72;;;1.13;;
48987;SDS011;34799;51.440;-2.534;2022-09-16T04:08:35;2.42;;;0.35;;
48987;SDS011;34799;51.440;-2.534;2022-09-16T04:11:03;1.63;;;0.30;;
48987;SDS011;34799;51.440;-2.534;2022-09-16T04:13:32;4.03;;;0.60;;
48987;SDS011;34799;51.440;-2.534;2022-09-16T04:16:01;3.38;;;0.40;;
48987;SDS011;34799;51.440;-2.534;2022-09-16T04:18:31;1.80;;;0.47;;
48987;SDS011;34799;51.440;-2.534;2022-09-16T04:21:00;1.83;;;0.65;;
48987;SDS011;34799;51.440;-2.534;2022-09-16T04:23:29;4.03;;;0.60;;
48987;SDS011;34799;51.440;-2.534;2022-09-16T04:26:00;2.83;;;0.65;;
48987;SDS011;34799;51.440;-2.534;2022-09-16T04:28:28;1.80;;;0.40;;
48987;SDS011;34799;51.440;-2.534;2022-09-16T04:31:03;1.73;;;0.40;;
48987;SDS011;34799;51.440;-2.534;2022-09-16T04:33:33;2.17;;;0.28;;
48987;SDS011;34799;51.440;-2.534;2022-09-16T04:36:02;3.63;;;0.40;;
48987;SDS011;34799;51.440;-2.534;2022-09-16T04:38:34;2.72;;;0.40;;
48987;SDS011;34799;51.440;-2.534;2022-09-16T04:41:03;2.58;;;0.30;;
48987;SDS011;34799;51.440;-2.534;2022-09-16T04:43:35;5.10;;;0.73;;
48987;SDS011;34799;51.440;-2.534;2022-09-16T04:46:02;2.42;;;0.30;;
48987;SDS011;34799;51.440;-2.534;2022-09-16T04:48:30;2.22;;;0.30;;
48987;SDS011;34799;51.440;-2.534;2022-09-16T04:51:01;3.65;;;0.40;;
48987;SDS011;34799;51.440;-2.534;2022-09-16T04:53:37;3.17;;;0.30;;
48987;SDS011;34799;51.440;-2.534;2022-09-16T04:56:06;2.55;;;0.32;;
48987;SDS011;34799;51.440;-2.534;2022-09-16T04:58:43;2.80;;;0.52;;
48987;SDS011;34799;51.440;-2.534;2022-09-16T05:01:17;0.93;;;0.25;;
48987;SDS011;34799;51.440;-2.534;2022-09-16T05:03:49;5.03;;;0.50;;
48987;SDS011;34799;51.440;-2.534;2022-09-16T05:06:22;3.45;;;0.50;;
48987;SDS011;34799;51.440;-2.534;2022-09-16T05:08:55;4.75;;;0.60;;
48987;SDS011;34799;51.440;-2.534;2022-09-16T05:11:24;2.97;;;0.50;;
48987;SDS011;34799;51.440;-2.534;2022-09-16T05:13:53;1.25;;;0.30;;
48987;SDS011;34799;51.440;-2.534;2022-09-16T05:16:21;3.10;;;0.47;;
48987;SDS011;34799;51.440;-2.534;2022-09-16T05:18:49;1.38;;;0.45;;
48987;SDS011;34799;51.440;-2.534;2022-09-16T05:21:23;2.33;;;0.30;;
48987;SDS011;34799;51.440;-2.534;2022-09-16T05:23:52;6.80;;;0.30;;
48987;SDS011;34799;51.440;-2.534;2022-09-16T05:26:23;2.28;;;0.22;;
48987;SDS011;34799;51.440;-2.534;2022-09-16T05:28:53;3.97;;;0.28;;
48987;SDS011;34799;51.440;-2.534;2022-09-16T05:31:21;1.80;;;0.20;;
48987;SDS011;34799;51.440;-2.534;2022-09-16T05:33:55;3.03;;;0.40;;
48987;SDS011;34799;51.440;-2.534;2022-09-16T05:36:25;1.98;;;0.40;;
48987;SDS011;34799;51.440;-2.534;2022-09-16T05:38:54;1.73;;;0.40;;
48987;SDS011;34799;51.440;-2.534;2022-09-16T05:41:37;2.35;;;0.60;;
48987;SDS011;34799;51.440;-2.534;2022-09-16T05:44:04;2.97;;;0.63;;
48987;SDS011;34799;51.440;-2.534;2022-09-16T05:46:34;2.15;;;0.52;;
48987;SDS011;34799;51.440;-2.534;2022-09-16T05:49:01;2.05;;;0.60;;
48987;SDS011;34799;51.440;-2.534;2022-09-16T05:51:28;1.83;;;0.60;;
48987;SDS011;34799;51.440;-2.534;2022-09-16T05:53:57;7.20;;;0.52;;
48987;SDS011;34799;51.440;-2.534;2022-09-16T05:56:26;4.07;;;0.60;;
48987;SDS011;34799;51.440;-2.534;2022-09-16T05:58:56;5.97;;;0.90;;
48987;SDS011;34799;51.440;-2.534;2022-09-16T06:01:30;3.53;;;1.02;;
48987;SDS011;34799;51.440;-2.534;2022-09-16T06:03:59;3.65;;;0.73;;
48987;SDS011;34799;51.440;-2.534;2022-09-16T06:06:30;7.68;;;0.70;;
48987;SDS011;34799;51.440;-2.534;2022-09-16T06:11:52;4.35;;;0.60;;
48987;SDS011;34799;51.440;-2.534;2022-09-16T06:14:23;6.30;;;1.13;;
48987;SDS011;34799;51.440;-2.534;2022-09-16T06:16:50;11.35;;;1.00;;
48987;SDS011;34799;51.440;-2.534;2022-09-16T06:19:17;5.13;;;1.00;;
48987;SDS011;34799;51.440;-2.534;2022-09-16T06:21:46;5.22;;;0.60;;
48987;SDS011;34799;51.440;-2.534;2022-09-16T06:24:14;10.65;;;1.52;;
48987;SDS011;34799;51.440;-2.534;2022-09-16T06:26:43;2.92;;;0.70;;
48987;SDS011;34799;51.440;-2.534;2022-09-16T06:29:13;4.10;;;0.47;;
48987;SDS011;34799;51.440;-2.534;2022-09-16T06:31:41;5.32;;;0.73;;
48987;SDS011;34799;51.440;-2.534;2022-09-16T06:34:12;4.35;;;1.05;;
48987;SDS011;34799;51.440;-2.534;2022-09-16T06:36:41;1.58;;;0.45;;
48987;SDS011;34799;51.440;-2.534;2022-09-16T06:39:10;7.60;;;0.82;;
48987;SDS011;34799;51.440;-2.534;2022-09-16T06:41:40;5.70;;;0.50;;
48987;SDS011;34799;51.440;-2.534;2022-09-16T06:44:07;7.00;;;0.80;;
48987;SDS011;34799;51.440;-2.534;2022-09-16T06:46:34;3.33;;;0.60;;
48987;SDS011;34799;51.440;-2.534;2022-09-16T06:49:02;7.03;;;0.90;;
48987;SDS011;34799;51.440;-2.534;2022-09-16T06:51:32;5.97;;;1.00;;
48987;SDS011;34799;51.440;-2.534;2022-09-16T06:54:01;2.35;;;0.40;;
48987;SDS011;34799;51.440;-2.534;2022-09-16T06:56:33;5.93;;;0.60;;
48987;SDS011;34799;51.440;-2.534;2022-09-16T06:59:05;4.68;;;0.43;;
48987;SDS011;34799;51.440;-2.534;2022-09-16T07:01:34;3.20;;;0.40;;
48987;SDS011;34799;51.440;-2.534;2022-09-16T07:04:02;4.35;;;0.85;;
48987;SDS011;34799;51.440;-2.534;2022-09-16T07:06:31;3.47;;;0.40;;
48987;SDS011;34799;51.440;-2.534;2022-09-16T07:09:21;1.95;;;0.52;;
48987;SDS011;34799;51.440;-2.534;2022-09-16T07:11:48;3.95;;;0.68;;
48987;SDS011;34799;51.440;-2.534;2022-09-16T07:14:15;4.45;;;0.60;;
48987;SDS011;34799;51.440;-2.534;2022-09-16T07:16:42;2.05;;;0.50;;
48987;SDS011;34799;51.440;-2.534;2022-09-16T07:19:10;2.35;;;0.32;;
48987;SDS011;34799;51.440;-2.534;2022-09-16T07:21:37;8.63;;;0.70;;
48987;SDS011;34799;51.440;-2.534;2022-09-16T07:24:04;3.50;;;0.40;;
48987;SDS011;34799;51.440;-2.534;2022-09-16T07:26:32;5.07;;;0.40;;
48987;SDS011;34799;51.440;-2.534;2022-09-16T07:29:02;4.93;;;0.40;;
48987;SDS011;34799;51.440;-2.534;2022-09-16T07:31:32;2.58;;;0.30;;
48987;SDS011;34799;51.440;-2.534;2022-09-16T07:34:03;3.25;;;0.40;;
48987;SDS011;34799;51.440;-2.534;2022-09-16T07:36:34;1.17;;;0.20;;
48987;SDS011;34799;51.440;-2.534;2022-09-16T07:39:04;3.40;;;0.47;;
48987;SDS011;34799;51.440;-2.534;2022-09-16T07:41:32;3.17;;;0.17;;
48987;SDS011;34799;51.440;-2.534;2022-09-16T07:44:05;0.70;;;0.30;;
48987;SDS011;34799;51.440;-2.534;2022-09-16T07:46:33;2.03;;;1.00;;
48987;SDS011;34799;51.440;-2.534;2022-09-16T07:49:03;2.60;;;0.20;;
48987;SDS011;34799;51.440;-2.534;2022-09-16T07:51:32;1.42;;;0.10;;
48987;SDS011;34799;51.440;-2.534;2022-09-16T07:54:00;3.90;;;0.25;;
48987;SDS011;34799;51.440;-2.534;2022-09-16T07:56:32;2.03;;;0.20;;
48987;SDS011;34799;51.440;-2.534;2022-09-16T07:59:00;2.85;;;0.10;;
48987;SDS011;34799;51.440;-2.534;2022-09-16T08:01:31;1.65;;;0.10;;
48987;SDS011;34799;51.440;-2.534;2022-09-16T08:03:58;3.55;;;0.38;;
48987;SDS011;34799;51.440;-2.534;2022-09-16T08:06:27;2.17;;;0.10;;
48987;SDS011;34799;51.440;-2.534;2022-09-16T08:08:58;3.00;;;0.30;;
48987;SDS011;34799;51.440;-2.534;2022-09-16T08:11:28;1.42;;;0.20;;
48987;SDS011;34799;51.440;-2.534;2022-09-16T08:13:58;1.92;;;0.10;;
48987;SDS011;34799;51.440;-2.534;2022-09-16T08:16:26;3.13;;;0.20;;
48987;SDS011;34799;51.440;-2.534;2022-09-16T08:18:54;3.97;;;0.20;;
48987;SDS011;34799;51.440;-2.534;2022-09-16T08:21:23;1.45;;;0.03;;
48987;SDS011;34799;51.440;-2.534;2022-09-16T08:23:53;1.73;;;0.10;;
48987;SDS011;34799;51.440;-2.534;2022-09-16T08:26:21;3.67;;;0.25;;
48987;SDS011;34799;51.440;-2.534;2022-09-16T08:28:49;3.08;;;0.20;;
48987;SDS011;34799;51.440;-2.534;2022-09-16T08:31:30;4.13;;;0.15;;
48987;SDS011;34799;51.440;-2.534;2022-09-16T08:33:57;1.17;;;0.10;;
48987;SDS011;34799;51.440;-2.534;2022-09-16T08:36:25;2.15;;;0.38;;
48987;SDS011;34799;51.440;-2.534;2022-09-16T08:38:53;1.48;;;0.25;;
48987;SDS011;34799;51.440;-2.534;2022-09-16T08:41:24;0.82;;;0.10;;
48987;SDS011;34799;51.440;-2.534;2022-09-16T08:49:15;4.70;;;0.60;;
48987;SDS011;34799;51.440;-2.534;2022-09-16T08:51:55;1.42;;;0.10;;
48987;SDS011;34799;51.440;-2.534;2022-09-16T08:56:57;3.92;;;0.65;;
48987;SDS011;34799;51.440;-2.534;2022-09-16T08:59:27;1.20;;;0.10;;
48987;SDS011;34799;51.440;-2.534;2022-09-16T09:02:12;3.28;;;0.10;;
48987;SDS011;34799;51.440;-2.534;2022-09-16T09:05:21;1.65;;;0.10;;
48987;SDS011;34799;51.440;-2.534;2022-09-16T09:08:10;0.47;;;0.10;;
48987;SDS011;34799;51.440;-2.534;2022-09-16T09:10:56;2.28;;;0.20;;
48987;SDS011;34799;51.440;-2.534;2022-09-16T09:22:26;3.50;;;0.38;;
48987;SDS011;34799;51.440;-2.534;2022-09-16T09:24:46;0.60;;;0.10;;
48987;SDS011;34799;51.440;-2.534;2022-09-16T09:27:30;5.95;;;0.40;;
48987;SDS011;34799;51.440;-2.534;2022-09-16T09:32:39;5.85;;;0.28;;
48987;SDS011;34799;51.440;-2.534;2022-09-16T09:40:31;2.97;;;0.98;;
48987;SDS011;34799;51.440;-2.534;2022-09-16T09:43:10;7.72;;;0.20;;
48987;SDS011;34799;51.440;-2.534;2022-09-16T09:45:53;4.65;;;0.10;;
48987;SDS011;34799;51.440;-2.534;2022-09-16T09:48:28;1.00;;;0.00;;
48987;SDS011;34799;51.440;-2.534;2022-09-16T09:51:05;2.05;;;0.10;;
48987;SDS011;34799;51.440;-2.534;2022-09-16T09:53:43;2.25;;;0.20;;
48987;SDS011;34799;51.440;-2.534;2022-09-16T09:56:23;2.17;;;0.10;;
48987;SDS011;34799;51.440;-2.534;2022-09-16T10:01:52;0.82;;;0.10;;
48987;SDS011;34799;51.440;-2.534;2022-09-16T10:04:21;1.60;;;0.17;;
48987;SDS011;34799;51.440;-2.534;2022-09-16T10:06:48;0.30;;;0.03;;
48987;SDS011;34799;51.440;-2.534;2022-09-16T10:09:17;0.70;;;0.13;;
48987;SDS011;34799;51.440;-2.534;2022-09-16T10:11:49;0.75;;;0.00;;
48987;SDS011;34799;51.440;-2.534;2022-09-16T10:14:40;2.90;;;0.10;;
48987;SDS011;34799;51.440;-2.534;2022-09-16T10:17:14;2.08;;;0.00;;
48987;SDS011;34799;51.440;-2.534;2022-09-16T10:19:52;2.10;;;0.20;;
48987;SDS011;34799;51.440;-2.534;2022-09-16T10:22:30;2.35;;;0.03;;
48987;SDS011;34799;51.440;-2.534;2022-09-16T10:25:00;0.93;;;0.00;;
48987;SDS011;34799;51.440;-2.534;2022-09-16T10:27:30;1.20;;;0.10;;
48987;SDS011;34799;51.440;-2.534;2022-09-16T10:30:03;2.40;;;0.50;;
48987;SDS011;34799;51.440;-2.534;2022-09-16T10:35:35;0.57;;;0.00;;
48987;SDS011;34799;51.440;-2.534;2022-09-16T10:40:35;0.77;;;0.00;;
48987;SDS011;34799;51.440;-2.534;2022-09-16T10:43:03;0.47;;;0.10;;
48987;SDS011;34799;51.440;-2.534;2022-09-16T10:45:49;1.35;;;0.10;;
48987;SDS011;34799;51.440;-2.534;2022-09-16T10:48:27;3.30;;;0.17;;
48987;SDS011;34799;51.440;-2.534;2022-09-16T10:51:00;2.97;;;0.17;;
48987;SDS011;34799;51.440;-2.534;2022-09-16T10:56:19;2.08;;;0.05;;
48987;SDS011;34799;51.440;-2.534;2022-09-16T10:58:59;1.95;;;0.10;;
48987;SDS011;34799;51.440;-2.534;2022-09-16T11:04:31;0.60;;;0.00;;
48987;SDS011;34799;51.440;-2.534;2022-09-16T11:07:35;1.20;;;0.10;;
48987;SDS011;34799;51.440;-2.534;2022-09-16T11:13:08;0.20;;;0.00;;
48987;SDS011;34799;51.440;-2.534;2022-09-16T11:16:02;1.10;;;0.00;;
48987;SDS011;34799;51.440;-2.534;2022-09-16T11:24:39;1.95;;;0.08;;
48987;SDS011;34799;51.440;-2.534;2022-09-16T11:27:35;0.25;;;0.25;;
48987;SDS011;34799;51.440;-2.534;2022-09-16T11:30:16;0.00;;;0.00;;
48987;SDS011;34799;51.440;-2.534;2022-09-16T11:38:41;0.57;;;0.10;;
48987;SDS011;34799;51.440;-2.534;2022-09-16T11:41:31;0.80;;;0.00;;
48987;SDS011;34799;51.440;-2.534;2022-09-16T11:53:13;0.82;;;0.00;;
48987;SDS011;34799;51.440;-2.534;2022-09-16T11:58:35;0.22;;;0.00;;
48987;SDS011;34799;51.440;-2.534;2022-09-16T12:01:50;1.45;;;0.05;;
48987;SDS011;34799;51.440;-2.534;2022-09-16T12:04:11;1.17;;;0.00;;
48987;SDS011;34799;51.440;-2.534;2022-09-16T12:06:57;0.20;;;0.00;;
48987;SDS011;34799;51.440;-2.534;2022-09-16T12:09:35;1.10;;;0.00;;
48987;SDS011;34799;51.440;-2.534;2022-09-16T12:12:28;0.45;;;0.00;;
48987;SDS011;34799;51.440;-2.534;2022-09-16T12:14:58;1.65;;;0.10;;
48987;SDS011;34799;51.440;-2.534;2022-09-16T12:17:36;0.80;;;0.00;;
48987;SDS011;34799;51.440;-2.534;2022-09-16T12:20:28;2.10;;;0.10;;
48987;SDS011;34799;51.440;-2.534;2022-09-16T12:23:05;0.50;;;0.10;;
48987;SDS011;34799;51.440;-2.534;2022-09-16T12:25:42;0.90;;;0.10;;
48987;SDS011;34799;51.440;-2.534;2022-09-16T12:28:33;3.92;;;0.45;;
48987;SDS011;34799;51.440;-2.534;2022-09-16T12:31:10;3.67;;;0.85;;
48987;SDS011;34799;51.440;-2.534;2022-09-16T12:33:54;0.68;;;0.00;;
48987;SDS011;34799;51.440;-2.534;2022-09-16T12:36:29;1.58;;;0.10;;
48987;SDS011;34799;51.440;-2.534;2022-09-16T12:38:59;0.40;;;0.08;;
48987;SDS011;34799;51.440;-2.534;2022-09-16T12:59:05;1.00;;;0.30;;
48987;SDS011;34799;51.440;-2.534;2022-09-16T13:01:57;1.05;;;0.00;;
48987;SDS011;34799;51.440;-2.534;2022-09-16T13:04:34;2.50;;;0.10;;
48987;SDS011;34799;51.440;-2.534;2022-09-16T13:07:05;0.40;;;0.10;;
48987;SDS011;34799;51.440;-2.534;2022-09-16T13:09:36;0.60;;;0.10;;
48987;SDS011;34799;51.440;-2.534;2022-09-16T13:12:16;1.08;;;0.10;;
48987;SDS011;34799;51.440;-2.534;2022-09-16T13:15:03;0.15;;;0.00;;
48987;SDS011;34799;51.440;-2.534;2022-09-16T13:17:33;0.20;;;0.08;;
48987;SDS011;34799;51.440;-2.534;2022-09-16T13:22:46;0.03;;;0.00;;
48987;SDS011;34799;51.440;-2.534;2022-09-16T13:25:31;0.40;;;0.00;;
48987;SDS011;34799;51.440;-2.534;2022-09-16T13:28:23;0.30;;;0.00;;
48987;SDS011;34799;51.440;-2.534;2022-09-16T13:33:44;0.20;;;0.10;;
48987;SDS011;34799;51.440;-2.534;2022-09-16T13:38:49;0.20;;;0.00;;
48987;SDS011;34799;51.440;-2.534;2022-09-16T13:44:01;2.00;;;0.10;;
48987;SDS011;34799;51.440;-2.534;2022-09-16T13:46:50;0.08;;;0.00;;
48987;SDS011;34799;51.440;-2.534;2022-09-16T13:49:18;0.08;;;0.00;;
48987;SDS011;34799;51.440;-2.534;2022-09-16T13:51:47;0.10;;;0.00;;
48987;SDS011;34799;51.440;-2.534;2022-09-16T13:54:27;2.50;;;0.00;;
48987;SDS011;34799;51.440;-2.534;2022-09-16T13:59:58;0.85;;;0.10;;
48987;SDS011;34799;51.440;-2.534;2022-09-16T14:05:59;0.32;;;0.00;;
48987;SDS011;34799;51.440;-2.534;2022-09-16T14:14:33;0.30;;;0.10;;
48987;SDS011;34799;51.440;-2.534;2022-09-16T14:17:15;0.85;;;0.20;;
48987;SDS011;34799;51.440;-2.534;2022-09-16T14:19:57;2.67;;;0.23;;
48987;SDS011;34799;51.440;-2.534;2022-09-16T14:22:25;1.35;;;0.10;;
48987;SDS011;34799;51.440;-2.534;2022-09-16T14:24:56;0.10;;;0.10;;
48987;SDS011;34799;51.440;-2.534;2022-09-16T14:30:35;0.75;;;0.10;;
48987;SDS011;34799;51.440;-2.534;2022-09-16T14:32:45;3.25;;;0.28;;
48987;SDS011;34799;51.440;-2.534;2022-09-16T14:35:16;0.45;;;0.00;;
48987;SDS011;34799;51.440;-2.534;2022-09-16T14:37:48;1.20;;;0.10;;
48987;SDS011;34799;51.440;-2.534;2022-09-16T14:40:20;0.00;;;0.00;;
48987;SDS011;34799;51.440;-2.534;2022-09-16T14:42:54;0.00;;;0.00;;
48987;SDS011;34799;51.440;-2.534;2022-09-16T14:45:26;0.10;;;0.00;;
48987;SDS011;34799;51.440;-2.534;2022-09-16T14:47:56;1.63;;;0.00;;
48987;SDS011;34799;51.440;-2.534;2022-09-16T14:50:27;0.10;;;0.00;;
48987;SDS011;34799;51.440;-2.534;2022-09-16T14:52:59;0.20;;;0.10;;
48987;SDS011;34799;51.440;-2.534;2022-09-16T14:55:29;0.32;;;0.00;;
48987;SDS011;34799;51.440;-2.534;2022-09-16T14:57:57;1.55;;;0.00;;
48987;SDS011;34799;51.440;-2.534;2022-09-16T15:00:45;0.20;;;0.00;;
48987;SDS011;34799;51.440;-2.534;2022-09-16T15:03:23;0.20;;;0.00;;
48987;SDS011;34799;51.440;-2.534;2022-09-16T15:05:54;1.25;;;0.00;;
48987;SDS011;34799;51.440;-2.534;2022-09-16T15:08:27;0.52;;;0.00;;
48987;SDS011;34799;51.440;-2.534;2022-09-16T15:11:02;0.10;;;0.00;;
48987;SDS011;34799;51.440;-2.534;2022-09-16T15:13:44;0.10;;;0.00;;
48987;SDS011;34799;51.440;-2.534;2022-09-16T15:16:14;0.50;;;0.00;;
48987;SDS011;34799;51.440;-2.534;2022-09-16T15:18:51;0.10;;;0.00;;
48987;SDS011;34799;51.440;-2.534;2022-09-16T15:21:42;1.58;;;0.03;;
48987;SDS011;34799;51.440;-2.534;2022-09-16T15:24:14;0.30;;;0.00;;
48987;SDS011;34799;51.440;-2.534;2022-09-16T15:26:48;0.40;;;0.00;;
48987;SDS011;34799;51.440;-2.534;2022-09-16T15:31:44;1.55;;;0.00;;
48987;SDS011;34799;51.440;-2.534;2022-09-16T15:34:19;1.40;;;0.00;;
48987;SDS011;34799;51.440;-2.534;2022-09-16T15:36:58;0.63;;;0.00;;
48987;SDS011;34799;51.440;-2.534;2022-09-16T15:44:52;0.52;;;0.00;;
48987;SDS011;34799;51.440;-2.534;2022-09-16T15:47:22;0.03;;;0.00;;
48987;SDS011;34799;51.440;-2.534;2022-09-16T15:49:59;0.20;;;0.00;;
48987;SDS011;34799;51.440;-2.534;2022-09-16T15:52:26;0.20;;;0.00;;
48987;SDS011;34799;51.440;-2.534;2022-09-16T15:54:57;0.08;;;0.00;;
48987;SDS011;34799;51.440;-2.534;2022-09-16T15:57:32;0.63;;;0.10;;
48987;SDS011;34799;51.440;-2.534;2022-09-16T16:00:04;1.23;;;0.10;;
48987;SDS011;34799;51.440;-2.534;2022-09-16T16:02:43;0.22;;;0.00;;
48987;SDS011;34799;51.440;-2.534;2022-09-16T16:05:19;0.68;;;0.00;;
48987;SDS011;34799;51.440;-2.534;2022-09-16T16:07:57;0.45;;;0.00;;
48987;SDS011;34799;51.440;-2.534;2022-09-16T16:10:31;2.25;;;0.00;;
48987;SDS011;34799;51.440;-2.534;2022-09-16T16:13:03;0.65;;;0.00;;
48987;SDS011;34799;51.440;-2.534;2022-09-16T16:15:34;0.22;;;0.00;;
48987;SDS011;34799;51.440;-2.534;2022-09-16T16:18:07;1.08;;;0.00;;
48987;SDS011;34799;51.440;-2.534;2022-09-16T16:20:36;9.27;;;0.30;;
48987;SDS011;34799;51.440;-2.534;2022-09-16T16:23:05;0.08;;;0.00;;
48987;SDS011;34799;51.440;-2.534;2022-09-16T16:25:32;1.02;;;0.00;;
48987;SDS011;34799;51.440;-2.534;2022-09-16T16:28:01;2.03;;;0.00;;
48987;SDS011;34799;51.440;-2.534;2022-09-16T16:30:28;1.30;;;0.00;;
48987;SDS011;34799;51.440;-2.534;2022-09-16T16:32:56;0.85;;;0.00;;
48987;SDS011;34799;51.440;-2.534;2022-09-16T16:35:23;0.20;;;0.20;;
48987;SDS011;34799;51.440;-2.534;2022-09-16T16:37:50;2.83;;;0.00;;
48987;SDS011;34799;51.440;-2.534;2022-09-16T16:40:18;0.43;;;0.00;;
48987;SDS011;34799;51.440;-2.534;2022-09-16T16:42:45;0.55;;;0.00;;
48987;SDS011;34799;51.440;-2.534;2022-09-16T16:45:13;0.55;;;0.00;;
48987;SDS011;34799;51.440;-2.534;2022-09-16T16:47:40;0.28;;;0.00;;
48987;SDS011;34799;51.440;-2.534;2022-09-16T16:50:11;0.08;;;0.00;;
48987;SDS011;34799;51.440;-2.534;2022-09-16T16:52:38;0.20;;;0.00;;
48987;SDS011;34799;51.440;-2.534;2022-09-16T16:55:05;1.58;;;0.00;;
48987;SDS011;34799;51.440;-2.534;2022-09-16T16:57:32;0.05;;;0.00;;
48987;SDS011;34799;51.440;-2.534;2022-09-16T16:59:59;0.10;;;0.00;;
48987;SDS011;34799;51.440;-2.534;2022-09-16T17:02:28;1.50;;;0.00;;
48987;SDS011;34799;51.440;-2.534;2022-09-16T17:04:55;0.13;;;0.00;;
48987;SDS011;34799;51.440;-2.534;2022-09-16T17:07:22;2.17;;;0.20;;
48987;SDS011;34799;51.440;-2.534;2022-09-16T17:09:51;0.10;;;0.03;;
48987;SDS011;34799;51.440;-2.534;2022-09-16T17:12:20;2.03;;;0.00;;
48987;SDS011;34799;51.440;-2.534;2022-09-16T17:14:47;0.30;;;0.00;;
48987;SDS011;34799;51.440;-2.534;2022-09-16T17:17:14;0.40;;;0.00;;
48987;SDS011;34799;51.440;-2.534;2022-09-16T17:19:41;2.08;;;0.00;;
48987;SDS011;34799;51.440;-2.534;2022-09-16T17:22:08;1.02;;;0.10;;
48987;SDS011;34799;51.440;-2.534;2022-09-16T17:24:35;0.28;;;0.00;;
48987;SDS011;34799;51.440;-2.534;2022-09-16T17:27:03;0.20;;;0.00;;
48987;SDS011;34799;51.440;-2.534;2022-09-16T17:29:30;1.85;;;0.40;;
48987;SDS011;34799;51.440;-2.534;2022-09-16T17:31:57;3.55;;;0.00;;
48987;SDS011;34799;51.440;-2.534;2022-09-16T17:34:27;1.38;;;0.00;;
48987;SDS011;34799;51.440;-2.534;2022-09-16T17:36:56;2.00;;;0.10;;
48987;SDS011;34799;51.440;-2.534;2022-09-16T17:39:23;0.35;;;0.10;;
48987;SDS011;34799;51.440;-2.534;2022-09-16T17:41:51;1.10;;;0.10;;
48987;SDS011;34799;51.440;-2.534;2022-09-16T17:44:19;0.40;;;0.00;;
48987;SDS011;34799;51.440;-2.534;2022-09-16T17:46:47;1.52;;;0.00;;
48987;SDS011;34799;51.440;-2.534;2022-09-16T17:49:19;0.30;;;0.10;;
48987;SDS011;34799;51.440;-2.534;2022-09-16T17:51:48;0.20;;;0.00;;
48987;SDS011;34799;51.440;-2.534;2022-09-16T17:54:16;0.88;;;0.00;;
48987;SDS011;34799;51.440;-2.534;2022-09-16T17:56:43;1.38;;;0.10;;
48987;SDS011;34799;51.440;-2.534;2022-09-16T17:59:11;0.70;;;0.10;;